Time;durP1;ratioP1;P1;durP2;ratioP2;P2;SDS_P1;SDS_P2;PMS_P1;PMS_P2;Temp;Humidity;BMP_temperature;BMP_pressure;BME280_temperature;BME280_humidity;BME280_pressure;Samples;Min_cycle;Max_cycle;Signal;HPM_P1;HPM_P2
2021/08/03 00:00:52;;;;;;;8.10;5.17;;;;;;;15.19;74.65;99958.91;1726969;82;26067;-66
2021/08/03 00:03:37;;;;;;;7.17;5.40;;;;;;;15.18;74.90;99962.76;1707094;83;25757;-67
2021/08/03 00:06:16;;;;;;;8.78;5.40;;;;;;;15.16;74.96;99964.26;1727093;83;26653;-67
2021/08/03 00:08:57;;;;;;;8.45;5.83;;;;;;;15.15;75.06;99966.17;1727249;82;25643;-67
2021/08/03 00:11:28;;;;;;;8.95;5.67;;;;;;;15.14;75.17;99968.69;1727053;82;28642;-67
2021/08/03 00:13:55;;;;;;;5.67;5.08;;;;;;;15.12;75.35;99970.40;1726883;82;25687;-66
2021/08/03 00:16:24;;;;;;;8.70;5.62;;;;;;;15.13;75.38;99973.91;1727036;82;25698;-67
2021/08/03 00:18:52;;;;;;;8.03;5.00;;;;;;;15.12;75.41;99970.98;1706129;83;25686;-67
2021/08/03 00:21:20;;;;;;;6.05;5.45;;;;;;;15.12;75.51;99971.76;1726833;83;25834;-67
2021/08/03 00:23:47;;;;;;;8.23;5.42;;;;;;;15.11;75.68;99977.55;1727174;82;27325;-66
2021/08/03 00:26:16;;;;;;;6.72;5.20;;;;;;;15.12;75.52;99980.52;1727146;82;25978;-67
2021/08/03 00:28:49;;;;;;;7.83;5.27;;;;;;;15.13;75.60;99983.44;1727402;82;26416;-67
2021/08/03 00:31:16;;;;;;;7.10;5.22;;;;;;;15.11;75.78;99987.87;1706652;83;26264;-67
2021/08/03 00:33:46;;;;;;;7.87;5.15;;;;;;;15.14;75.74;99985.03;1727245;83;25742;-67
2021/08/03 00:36:14;;;;;;;6.03;5.22;;;;;;;15.17;75.71;99991.16;1727106;83;27377;-67
2021/08/03 00:38:41;;;;;;;7.10;5.30;;;;;;;15.20;75.76;99989.08;1727101;82;25902;-67
2021/08/03 00:41:12;;;;;;;7.03;5.20;;;;;;;15.20;75.58;99989.08;1726950;83;26427;-67
2021/08/03 00:43:39;;;;;;;6.05;5.45;;;;;;;15.22;75.61;99987.38;1727011;83;25733;-67
2021/08/03 00:46:06;;;;;;;10.40;5.30;;;;;;;15.24;75.50;99994.65;1726960;83;25984;-66
2021/08/03 00:48:33;;;;;;;7.22;4.72;;;;;;;15.25;75.48;99985.32;1726945;83;27377;-66
2021/08/03 00:51:00;;;;;;;10.35;5.25;;;;;;;15.26;75.42;99990.42;1726863;83;25866;-66
2021/08/03 00:53:26;;;;;;;12.30;5.95;;;;;;;15.28;75.46;99994.16;1726805;83;25670;-66
2021/08/03 00:55:53;;;;;;;7.78;5.30;;;;;;;15.28;75.34;99995.53;1726903;83;25682;-66
2021/08/03 00:58:20;;;;;;;7.12;5.42;;;;;;;15.29;75.37;99998.48;1727046;83;25702;-66
2021/08/03 01:00:47;;;;;;;8.50;4.90;;;;;;;15.31;75.34;99994.26;1726952;83;27509;-66
2021/08/03 01:03:13;;;;;;;6.20;5.28;;;;;;;15.32;75.26;99989.59;1724041;83;25678;-66
2021/08/03 01:05:57;;;;;;;10.03;5.30;;;;;;;15.34;75.24;99990.06;1727019;83;25751;-66
2021/08/03 01:08:47;;;;;;;5.90;5.05;;;;;;;15.35;75.11;99998.44;1729606;82;25780;-66
2021/08/03 01:11:21;;;;;;;8.33;5.22;;;;;;;15.36;75.19;99995.95;1697943;82;25680;-66
2021/08/03 01:13:56;;;;;;;6.62;5.22;;;;;;;15.39;75.04;99999.89;1727031;80;27874;-66
2021/08/03 01:16:55;;;;;;;6.80;4.83;;;;;;;15.40;75.07;99994.67;1727146;82;25674;-66
2021/08/03 01:19:48;;;;;;;6.45;4.55;;;;;;;15.41;74.93;99992.16;1714570;83;25813;-66
2021/08/03 01:22:56;;;;;;;7.87;5.10;;;;;;;15.40;74.86;99996.04;1711522;83;26651;-67
2021/08/03 01:26:02;;;;;;;8.63;5.00;;;;;;;15.39;74.82;99996.62;1705765;84;25758;-67
2021/08/03 01:28:39;;;;;;;6.28;4.70;;;;;;;15.37;74.75;99997.52;1704461;83;28292;-67
2021/08/03 01:34:17;;;;;;;9.70;6.10;;;;;;;15.36;74.66;99996.50;1644295;86;25753;-67
2021/08/03 01:36:52;;;;;;;7.95;5.47;;;;;;;15.33;74.53;99998.00;1644132;87;25678;-67
2021/08/03 01:39:25;;;;;;;5.30;4.75;;;;;;;15.30;74.37;100001.41;1643621;87;25782;-67
2021/08/03 01:41:55;;;;;;;7.10;5.30;;;;;;;15.27;74.49;100004.83;1644214;87;28078;-67
2021/08/03 01:44:22;;;;;;;6.85;5.35;;;;;;;15.21;74.50;100013.05;1644200;87;25761;-67
2021/08/03 01:46:50;;;;;;;9.28;6.05;;;;;;;15.16;74.59;100010.57;1644289;87;25705;-67
2021/08/03 01:49:21;;;;;;;6.72;5.55;;;;;;;15.10;74.64;100014.09;1644246;87;26609;-67
2021/08/03 01:51:49;;;;;;;6.35;5.50;;;;;;;15.05;74.64;100012.97;1644278;87;25973;-67
2021/08/03 01:54:17;;;;;;;8.40;5.58;;;;;;;15.02;74.71;100014.47;1639018;87;28019;-67
2021/08/03 01:56:48;;;;;;;7.65;5.33;;;;;;;14.99;74.96;100020.61;1637526;87;25888;-67
2021/08/03 01:59:18;;;;;;;10.43;5.45;;;;;;;14.95;74.81;100015.64;1637790;87;25719;-67
2021/08/03 02:01:46;;;;;;;8.83;5.95;;;;;;;14.90;74.80;100019.97;1637635;87;26586;-67
2021/08/03 02:04:15;;;;;;;8.73;5.47;;;;;;;14.86;74.99;100028.00;1637727;87;25746;-66
2021/08/03 02:06:42;;;;;;;7.42;5.10;;;;;;;14.83;74.91;100032.80;1637903;87;27952;-67
2021/08/03 02:09:10;;;;;;;8.35;5.80;;;;;;;14.85;75.16;100048.22;1637679;87;25833;-67
2021/08/03 02:11:37;;;;;;;6.85;5.78;;;;;;;14.71;75.06;100032.80;1608720;86;25928;-66
2021/08/03 02:14:05;;;;;;;11.57;5.90;;;;;;;14.67;75.06;100032.69;1646215;86;25793;-66
2021/08/03 02:16:34;;;;;;;10.40;5.85;;;;;;;14.63;75.22;100030.44;1646439;87;25773;-66
2021/08/03 02:19:03;;;;;;;6.83;5.35;;;;;;;14.59;75.27;100034.97;1646506;87;28035;-66
2021/08/03 02:21:31;;;;;;;7.45;5.55;;;;;;;14.54;75.26;100040.06;1646241;87;26403;-66
2021/08/03 02:23:58;;;;;;;6.35;5.22;;;;;;;14.51;75.31;100037.23;1646496;86;25822;-66
2021/08/03 02:26:25;;;;;;;8.15;5.80;;;;;;;14.47;75.46;100036.31;1646321;87;26276;-66
2021/08/03 02:28:52;;;;;;;8.63;5.78;;;;;;;14.43;75.32;100036.78;1646385;87;25761;-66
2021/08/03 02:31:48;;;;;;;77.72;72.47;;;;;;;14.39;75.39;100038.03;1624389;87;28567;-66
2021/08/03 02:34:29;;;;;;;79.37;74.37;;;;;;;14.31;75.46;100034.28;1646652;86;25734;-66
2021/08/03 02:37:04;;;;;;;9.80;5.80;;;;;;;14.27;75.51;100029.30;1646099;86;25786;-66
2021/08/03 02:39:31;;;;;;;8.25;5.40;;;;;;;14.27;75.40;100039.38;1646448;87;25778;-66
2021/08/03 02:42:00;;;;;;;9.10;5.80;;;;;;;14.24;75.71;100042.80;1646285;87;25841;-66
2021/08/03 02:44:30;;;;;;;8.53;6.28;;;;;;;14.20;75.70;100046.19;1646283;87;27337;-66
2021/08/03 02:47:02;;;;;;;9.50;5.72;;;;;;;14.16;75.75;100041.18;1624694;87;25754;-67
2021/08/03 02:49:35;;;;;;;77.08;71.97;;;;;;;14.14;75.74;100044.03;1646378;86;25820;-67
2021/08/03 02:51:58;;;;;;;76.20;71.22;;;;;;;14.07;75.70;100041.87;1646099;86;25769;-67
2021/08/03 02:54:31;;;;;;;41.33;38.42;;;;;;;14.03;75.78;100038.25;1646488;87;25671;-66
2021/08/03 02:57:02;;;;;;;10.53;6.00;;;;;;;14.04;75.82;100049.34;1646170;87;27349;-67
2021/08/03 02:59:33;;;;;;;12.18;6.00;;;;;;;14.01;75.92;100049.46;1646221;86;25727;-67
2021/08/03 03:02:01;;;;;;;6.47;5.12;;;;;;;13.97;76.03;100059.98;1646138;86;25820;-67
2021/08/03 03:04:36;;;;;;;9.23;6.25;;;;;;;13.93;75.92;100060.44;1624147;87;26052;-67
2021/08/03 03:07:14;;;;;;;9.08;5.67;;;;;;;13.90;76.13;100063.25;1646442;87;25722;-67
2021/08/03 03:09:43;;;;;;;6.83;5.67;;;;;;;13.86;75.92;100066.42;1646142;87;27197;-67
2021/08/03 03:12:12;;;;;;;8.95;6.75;;;;;;;13.81;75.96;100060.63;1646498;86;29783;-67
2021/08/03 03:14:41;;;;;;;16.35;14.35;;;;;;;13.79;75.94;100073.77;1681907;85;25745;-67
2021/08/03 03:17:10;;;;;;;9.98;6.35;;;;;;;13.76;76.15;100066.28;1660994;85;25877;-67
2021/08/03 03:19:38;;;;;;;12.60;6.67;;;;;;;13.75;76.42;100069.33;1684627;85;25780;-67
2021/08/03 03:22:07;;;;;;;11.45;6.65;;;;;;;13.72;76.42;100074.86;1684339;85;27106;-67
2021/08/03 03:24:36;;;;;;;9.35;6.08;;;;;;;13.70;76.54;100078.48;1684436;85;26455;-67
2021/08/03 03:27:04;;;;;;;6.53;5.83;;;;;;;13.64;76.41;100081.98;1684535;85;25817;-67
2021/08/03 03:29:32;;;;;;;7.65;5.78;;;;;;;13.64;76.75;100085.27;1684243;85;25703;-67
2021/08/03 03:32:10;;;;;;;79.30;74.37;;;;;;;13.60;76.65;100083.80;1661171;85;25765;-67
2021/08/03 03:34:39;;;;;;;14.13;12.83;;;;;;;13.55;76.87;100077.20;1684210;85;27463;-67
2021/08/03 03:37:06;;;;;;;7.90;5.80;;;;;;;13.57;76.80;100083.09;1684111;85;25840;-67
2021/08/03 03:39:38;;;;;;;9.13;6.15;;;;;;;13.58;76.93;100086.03;1649385;86;25916;-67
2021/08/03 03:42:07;;;;;;;9.13;6.10;;;;;;;13.60;77.09;100088.41;1684181;84;25697;-67
2021/08/03 03:44:34;;;;;;;7.65;5.85;;;;;;;13.61;77.11;100084.58;1660700;85;25926;-67
2021/08/03 03:47:20;;;;;;;9.55;5.62;;;;;;;13.60;77.15;100085.16;1650049;86;27436;-67
2021/08/03 03:49:49;;;;;;;8.58;6.10;;;;;;;13.59;77.24;100090.92;1684091;83;25934;-67
2021/08/03 03:52:19;;;;;;;7.05;6.28;;;;;;;13.58;77.31;100087.96;1683887;85;27891;-66
2021/08/03 03:54:48;;;;;;;9.13;6.28;;;;;;;13.61;77.32;100090.02;1684099;85;25694;-66
2021/08/03 03:57:18;;;;;;;7.00;5.77;;;;;;;13.61;77.41;100094.87;1684465;85;25769;-66
2021/08/03 03:59:46;;;;;;;10.18;5.62;;;;;;;13.62;77.44;100099.73;1684265;84;27318;-66
2021/08/03 04:02:15;;;;;;;9.70;5.70;;;;;;;13.63;77.49;100098.05;1650453;86;25781;-66
2021/08/03 04:04:43;;;;;;;24.57;22.52;;;;;;;13.64;77.58;100098.30;1684465;84;25797;-66
2021/08/03 04:07:10;;;;;;;10.70;6.72;;;;;;;13.69;77.62;100104.63;1683882;85;25805;-66
2021/08/03 04:09:38;;;;;;;12.85;5.60;;;;;;;13.71;77.60;100105.91;1650637;86;25849;-66
2021/08/03 04:12:07;;;;;;;9.35;5.55;;;;;;;13.73;77.64;100106.36;1684326;84;26700;-66
2021/08/03 04:14:35;;;;;;;9.38;5.55;;;;;;;13.75;77.60;100101.37;1654964;86;25729;-65
2021/08/03 04:17:05;;;;;;;8.33;5.40;;;;;;;13.78;77.50;100106.15;1684756;84;25840;-66
2021/08/03 04:19:32;;;;;;;7.35;5.05;;;;;;;13.81;77.46;100106.84;1684546;85;26430;-66
2021/08/03 04:21:59;;;;;;;9.78;4.90;;;;;;;13.85;77.47;100115.13;1684487;85;26480;-66
2021/08/03 04:24:26;;;;;;;6.90;5.33;;;;;;;13.88;77.53;100110.95;1684561;85;28103;-66
2021/08/03 04:26:53;;;;;;;6.85;5.17;;;;;;;13.91;77.65;100112.43;1684497;85;26648;-66
2021/08/03 04:29:20;;;;;;;8.73;5.17;;;;;;;13.95;77.62;100112.55;1684511;85;25687;-66
2021/08/03 04:31:47;;;;;;;9.33;5.42;;;;;;;13.99;77.58;100113.45;1684471;85;26675;-66
2021/08/03 04:34:14;;;;;;;5.65;4.97;;;;;;;14.05;77.59;100112.70;1684517;85;25760;-66
2021/08/03 04:36:43;;;;;;;10.35;5.92;;;;;;;14.12;77.57;100122.45;1684505;85;28071;-66
2021/08/03 04:39:11;;;;;;;12.00;5.65;;;;;;;14.18;77.62;100124.63;1684532;85;25670;-66
2021/08/03 04:41:39;;;;;;;10.98;5.65;;;;;;;14.25;77.44;100128.15;1684396;85;25907;-66
2021/08/03 04:44:08;;;;;;;8.68;5.58;;;;;;;14.32;77.25;100126.20;1661466;85;25754;-66
2021/08/03 04:46:35;;;;;;;10.58;5.35;;;;;;;14.38;77.18;100124.86;1661803;85;25824;-66
2021/08/03 04:49:04;;;;;;;7.22;4.55;;;;;;;14.42;76.99;100120.34;1684442;85;28193;-66
2021/08/03 04:51:31;;;;;;;7.28;4.90;;;;;;;14.48;76.82;100123.06;1684416;85;25809;-66
2021/08/03 04:53:58;;;;;;;5.12;4.47;;;;;;;14.54;76.72;100122.26;1684501;85;25767;-66
2021/08/03 04:56:25;;;;;;;8.93;4.85;;;;;;;14.62;76.53;100127.41;1684447;85;26617;-66
2021/08/03 04:58:56;;;;;;;7.87;5.20;;;;;;;14.68;76.54;100130.14;1684587;85;25825;-66
2021/08/03 05:01:24;;;;;;;11.48;4.97;;;;;;;14.76;76.36;100137.38;1684466;85;28894;-66
2021/08/03 05:03:52;;;;;;;8.13;5.22;;;;;;;14.84;76.48;100137.05;1684379;85;25749;-67
2021/08/03 05:06:19;;;;;;;7.00;4.08;;;;;;;14.93;76.64;100129.53;1684565;85;25858;-66
2021/08/03 05:08:46;;;;;;;7.95;4.60;;;;;;;15.02;76.22;100130.80;1684417;85;26603;-67
2021/08/03 05:11:13;;;;;;;6.97;4.20;;;;;;;15.11;76.01;100139.63;1684448;85;25754;-67
2021/08/03 05:13:41;;;;;;;6.75;4.20;;;;;;;15.20;75.90;100138.13;1684342;84;27485;-66
2021/08/03 05:16:11;;;;;;;7.12;3.98;;;;;;;15.27;75.45;100140.52;1684339;85;25830;-67
2021/08/03 05:18:38;;;;;;;5.92;4.22;;;;;;;15.36;75.12;100143.10;1684384;85;25725;-67
2021/08/03 05:21:04;;;;;;;7.33;3.75;;;;;;;15.44;74.92;100148.17;1650660;86;26179;-67
2021/08/03 05:23:31;;;;;;;6.10;3.50;;;;;;;15.53;74.73;100143.94;1684431;85;25737;-66
2021/08/03 05:25:58;;;;;;;6.20;4.15;;;;;;;15.62;74.10;100152.78;1650918;86;28415;-67
2021/08/03 05:28:27;;;;;;;7.45;3.60;;;;;;;15.73;74.45;100152.50;1684345;85;26202;-67
2021/08/03 05:30:54;;;;;;;9.58;3.17;;;;;;;15.84;73.65;100148.75;1683751;85;25739;-66
2021/08/03 05:33:21;;;;;;;12.25;4.05;;;;;;;15.95;73.53;100152.55;1649374;86;26422;-66
2021/08/03 05:35:48;;;;;;;8.08;3.40;;;;;;;16.10;73.45;100158.41;1649489;86;25860;-66
2021/08/03 05:38:15;;;;;;;6.47;3.47;;;;;;;16.26;73.44;100159.23;1649398;86;27349;-66
2021/08/03 05:40:41;;;;;;;8.70;3.02;;;;;;;16.41;72.84;100159.81;1649137;86;25879;-66
2021/08/03 05:43:08;;;;;;;8.48;3.47;;;;;;;16.58;72.41;100164.69;1649517;86;25748;-66
2021/08/03 05:45:38;;;;;;;5.70;3.35;;;;;;;16.77;72.29;100164.78;1648745;86;25821;-66
2021/08/03 05:48:06;;;;;;;;;;;;;;;16.97;72.40;100165.67;1651935;86;25765;-66
2021/08/03 05:50:33;;;;;;;5.62;2.55;;;;;;;17.20;71.56;100170.46;1682864;85;27338;-66
2021/08/03 05:53:00;;;;;;;5.05;2.72;;;;;;;17.38;70.45;100170.84;1682490;85;25899;-66
2021/08/03 05:55:26;;;;;;;3.52;2.62;;;;;;;17.55;70.36;100170.44;1682811;85;25912;-66
2021/08/03 05:57:54;;;;;;;6.67;3.00;;;;;;;17.74;69.62;100173.75;1649506;86;25724;-66
2021/08/03 06:00:20;;;;;;;41.73;39.05;;;;;;;17.88;68.55;100172.48;1649366;86;25860;-66
2021/08/03 06:02:49;;;;;;;5.00;2.42;;;;;;;18.03;67.92;100178.44;1682844;85;27384;-65
2021/08/03 06:05:15;;;;;;;6.33;2.73;;;;;;;18.20;68.18;100182.66;1682296;85;25809;-66
2021/08/03 06:07:50;;;;;;;5.22;2.55;;;;;;;18.37;66.55;100180.59;1649465;86;25794;-66
2021/08/03 06:10:15;;;;;;;7.30;3.10;;;;;;;18.49;66.70;100183.17;1647127;86;26129;-66
2021/08/03 06:12:50;;;;;;;7.70;2.35;;;;;;;18.62;65.60;100179.06;1624041;88;25853;-66
2021/08/03 06:15:18;;;;;;;9.70;8.68;;;;;;;18.73;64.68;100181.19;1682814;84;27911;-66
2021/08/03 06:17:49;;;;;;;3.90;2.35;;;;;;;18.82;64.79;100185.85;1649236;86;25839;-66
2021/08/03 06:20:17;;;;;;;6.97;2.05;;;;;;;18.97;65.02;100186.91;1649472;86;25854;-66
2021/08/03 06:22:43;;;;;;;73.33;68.65;;;;;;;19.14;64.57;100182.84;1648818;86;26331;-66
2021/08/03 06:25:16;;;;;;;70.55;66.35;;;;;;;19.26;62.78;100190.03;1682887;85;25879;-66
2021/08/03 06:27:44;;;;;;;5.20;2.50;;;;;;;19.35;63.57;100187.83;1652487;85;27419;-66
2021/08/03 06:30:13;;;;;;;2.52;1.87;;;;;;;19.51;62.65;100191.75;1681481;85;25692;-66
2021/08/03 06:32:44;;;;;;;4.60;1.95;;;;;;;19.63;62.78;100187.98;1681445;85;25684;-66
2021/08/03 06:35:13;;;;;;;30.45;28.12;;;;;;;19.76;62.47;100186.61;1649164;86;26312;-66
2021/08/03 06:37:40;;;;;;;4.42;2.00;;;;;;;19.92;61.91;100193.25;1682808;85;31733;-66
2021/08/03 06:40:10;;;;;;;6.35;2.55;;;;;;;20.06;61.56;100193.42;1682818;85;28390;-66
2021/08/03 06:42:48;;;;;;;;;;;;;;;20.20;59.55;100196.90;1655198;85;25888;-66
2021/08/03 06:45:33;;;;;;;3.58;1.72;;;;;;;20.25;59.77;100191.66;1682789;85;25865;-66
2021/08/03 06:48:12;;;;;;;3.70;2.00;;;;;;;20.42;59.98;100193.00;1682866;85;26537;-66
2021/08/03 06:50:47;;;;;;;6.47;2.22;;;;;;;20.60;59.35;100198.08;1682380;85;25829;-66
2021/08/03 06:53:17;;;;;;;5.95;2.27;;;;;;;20.74;59.24;100190.56;1682549;85;27370;-66
2021/08/03 06:55:47;;;;;;;4.35;1.82;;;;;;;20.94;58.93;100199.33;1649343;86;25384;-66
2021/08/03 06:58:45;;;;;;;3.27;1.65;;;;;;;21.16;58.77;100197.52;1649264;86;25864;-67
2021/08/03 07:01:23;;;;;;;5.95;2.20;;;;;;;21.42;58.17;100194.34;1625969;88;26820;-67
2021/08/03 07:03:55;;;;;;;6.87;1.92;;;;;;;21.64;57.46;100201.55;1681451;85;25772;-66
2021/08/03 07:06:24;;;;;;;4.22;1.70;;;;;;;21.85;56.71;100194.55;1682470;85;28178;-66
2021/08/03 07:08:52;;;;;;;6.05;1.52;;;;;;;22.06;55.44;100193.81;1649121;86;25775;-65
2021/08/03 07:11:20;;;;;;;3.95;1.30;;;;;;;22.24;55.59;100192.48;1649470;86;25880;-65
2021/08/03 07:13:48;;;;;;;3.77;1.47;;;;;;;22.41;54.05;100193.72;1649224;86;26439;-66
2021/08/03 07:16:16;;;;;;;8.13;1.55;;;;;;;22.54;54.37;100201.80;1682559;84;25818;-65
2021/08/03 07:18:45;;;;;;;4.22;2.25;;;;;;;22.62;54.01;100196.30;1682437;85;27324;-66
2021/08/03 07:21:14;;;;;;;5.37;2.10;;;;;;;22.80;53.69;100193.52;1682367;85;26036;-65
2021/08/03 07:23:44;;;;;;;2.22;1.57;;;;;;;22.97;53.22;100191.36;1649323;86;25767;-66
2021/08/03 07:26:11;;;;;;;4.20;1.50;;;;;;;23.27;52.38;100194.27;1622293;88;26305;-66
2021/08/03 07:28:38;;;;;;;3.47;1.72;;;;;;;23.41;52.00;100190.68;1682913;84;25812;-66
2021/08/03 07:31:05;;;;;;;66.95;63.25;;;;;;;23.59;50.64;100191.41;1625623;86;28063;-66
2021/08/03 07:33:32;;;;;;;43.52;41.05;;;;;;;23.68;50.38;100189.02;1682428;85;25993;-66
2021/08/03 07:36:01;;;;;;;5.85;1.30;;;;;;;23.92;50.73;100185.16;1682784;84;25831;-66
2021/08/03 07:38:28;;;;;;;66.17;62.15;;;;;;;24.10;49.90;100187.06;1682890;85;25690;-66
2021/08/03 07:40:55;;;;;;;68.42;64.27;;;;;;;24.31;50.27;100184.73;1682094;85;25700;-66
2021/08/03 07:43:22;;;;;;;4.05;1.92;;;;;;;24.68;51.05;100188.23;1682844;84;27667;-66
2021/08/03 07:45:49;;;;;;;3.02;1.45;;;;;;;24.97;48.93;100194.89;1682644;85;26012;-66
2021/08/03 07:48:16;;;;;;;65.60;62.13;;;;;;;24.97;48.30;100186.59;1648247;86;25749;-66
2021/08/03 07:50:43;;;;;;;65.83;62.38;;;;;;;24.91;46.73;100190.41;1682496;85;26027;-66
2021/08/03 07:53:10;;;;;;;66.65;62.80;;;;;;;24.98;46.18;100189.56;1682750;84;25740;-65
2021/08/03 07:55:37;;;;;;;64.97;61.48;;;;;;;24.83;44.78;100188.90;1682656;84;28492;-65
2021/08/03 07:58:06;;;;;;;66.10;62.45;;;;;;;24.85;45.60;100194.80;1682724;84;25814;-65
2021/08/03 08:00:33;;;;;;;32.73;30.60;;;;;;;24.94;44.22;100190.17;1682508;84;27125;-65
2021/08/03 08:03:01;;;;;;;4.05;1.47;;;;;;;25.05;45.98;100190.09;1687611;84;25787;-65
2021/08/03 08:05:30;;;;;;;2.72;1.20;;;;;;;25.44;43.77;100188.30;1649615;86;25783;-66
2021/08/03 08:08:00;;;;;;;65.85;62.48;;;;;;;25.63;45.15;100188.27;1649174;86;27921;-65
2021/08/03 08:10:26;;;;;;;65.87;62.27;;;;;;;25.70;44.25;100193.70;1682703;85;25782;-64
2021/08/03 08:12:53;;;;;;;4.53;2.98;;;;;;;25.76;44.10;100189.09;1682767;85;25760;-65
2021/08/03 08:15:20;;;;;;;9.73;1.70;;;;;;;26.02;44.37;100193.92;1648628;86;25845;-64
2021/08/03 08:17:47;;;;;;;3.60;1.42;;;;;;;26.27;44.24;100196.91;1649026;86;25871;-65
2021/08/03 08:20:14;;;;;;;3.95;1.30;;;;;;;26.34;43.30;100198.22;1626803;88;27933;-65
2021/08/03 08:22:44;;;;;;;6.15;1.90;;;;;;;26.50;41.97;100202.33;1687772;84;25863;-64
2021/08/03 08:25:12;;;;;;;5.85;4.92;;;;;;;26.47;41.83;100195.02;1654146;86;25858;-65
2021/08/03 08:27:42;;;;;;;2.40;1.23;;;;;;;26.74;42.34;100195.61;1654013;86;26176;-64
2021/08/03 08:30:11;;;;;;;28.10;26.25;;;;;;;27.15;42.54;100187.53;1649075;86;25869;-65
2021/08/03 08:32:41;;;;;;;4.03;1.30;;;;;;;27.42;41.70;100194.99;1647023;85;27388;-65
2021/08/03 08:35:09;;;;;;;8.55;7.95;;;;;;;27.56;41.11;100189.75;1682753;85;25948;-64
2021/08/03 08:37:36;;;;;;;4.83;1.20;;;;;;;27.79;41.33;100188.88;1682667;85;25774;-65
2021/08/03 08:40:06;;;;;;;65.75;62.10;;;;;;;27.86;40.49;100195.67;1682363;85;27741;-65
2021/08/03 08:42:34;;;;;;;64.25;60.35;;;;;;;27.83;39.73;100184.63;1660245;85;25728;-65
2021/08/03 08:45:04;;;;;;;62.17;58.75;;;;;;;28.18;40.02;100190.62;1682679;84;27207;-65
2021/08/03 08:47:32;;;;;;;61.95;58.45;;;;;;;28.61;39.62;100184.84;1682265;84;25744;-64
2021/08/03 08:50:06;;;;;;;63.00;59.53;;;;;;;28.73;38.77;100186.76;1682972;84;25682;-65
2021/08/03 08:52:35;;;;;;;60.80;57.60;;;;;;;28.79;38.88;100189.97;1660111;85;25800;-64
2021/08/03 08:55:05;;;;;;;60.92;57.93;;;;;;;28.64;37.58;100185.38;1683156;84;25688;-64
2021/08/03 08:57:32;;;;;;;60.35;57.25;;;;;;;28.78;38.58;100187.62;1682978;84;27942;-65
2021/08/03 08:59:59;;;;;;;61.35;58.25;;;;;;;29.03;37.12;100191.92;1682858;84;25789;-64
2021/08/03 09:02:40;;;;;;;60.73;57.43;;;;;;;29.10;38.01;100181.20;1682636;85;25731;-65
2021/08/03 09:05:10;;;;;;;63.75;60.15;;;;;;;29.28;35.73;100196.05;1682803;84;26565;-64
2021/08/03 09:07:50;;;;;;;60.40;57.17;;;;;;;28.89;35.99;100193.67;1682708;84;25764;-66
2021/08/03 09:10:41;;;;;;;60.55;57.15;;;;;;;28.52;36.39;100195.79;1682896;84;27338;-66
2021/08/03 09:13:16;;;;;;;61.80;58.55;;;;;;;28.61;36.91;100188.25;1724032;81;26359;-63
2021/08/03 09:15:46;;;;;;;62.60;58.83;;;;;;;29.02;36.64;100189.57;1701228;83;25766;-65
2021/08/03 09:18:27;;;;;;;62.33;58.63;;;;;;;29.00;34.94;100183.67;1766595;81;26318;-65
2021/08/03 09:20:55;;;;;;;65.12;61.63;;;;;;;28.90;35.02;100181.95;1701186;83;25665;-63
2021/08/03 09:23:43;;;;;;;59.45;56.33;;;;;;;28.91;35.22;100183.50;1767277;81;27381;-66
2021/08/03 09:26:10;;;;;;;61.28;58.08;;;;;;;28.69;34.62;100179.28;1767518;80;26432;-64
2021/08/03 09:29:02;;;;;;;60.63;57.43;;;;;;;28.59;36.12;100173.97;1767574;80;25774;-64
2021/08/03 09:31:31;;;;;;;60.43;57.35;;;;;;;28.96;36.37;100176.81;1700536;83;25736;-63
2021/08/03 09:34:00;;;;;;;61.00;57.30;;;;;;;29.61;34.95;100176.42;1766010;81;25712;-64
2021/08/03 09:36:52;;;;;;;59.83;56.58;;;;;;;29.57;31.59;100179.91;1767646;80;27560;-64
2021/08/03 09:39:45;;;;;;;61.75;58.42;;;;;;;29.12;33.24;100171.02;1767190;80;25716;-65
2021/08/03 09:42:24;;;;;;;62.30;59.00;;;;;;;28.83;33.18;100175.96;1766341;80;25688;-65
2021/08/03 09:45:00;;;;;;;63.05;59.75;;;;;;;28.46;33.80;100172.48;1767179;80;25640;-65
2021/08/03 09:47:30;;;;;;;61.60;58.30;;;;;;;28.50;34.58;100178.73;1767849;80;26347;-65
2021/08/03 09:50:00;;;;;;;38.83;36.68;;;;;;;28.52;33.02;100183.27;1701660;83;27369;-65
2021/08/03 09:52:35;;;;;;;4.80;1.72;;;;;;;28.54;33.16;100190.56;1765912;81;25747;-65
2021/08/03 09:55:26;;;;;;;2.90;1.85;;;;;;;28.40;33.17;100190.90;1700696;83;26297;-65
2021/08/03 09:57:58;;;;;;;60.40;57.30;;;;;;;28.53;34.32;100184.05;1765659;81;25785;-65
2021/08/03 10:00:37;;;;;;;60.08;56.77;;;;;;;29.18;34.72;100180.41;1699243;84;25764;-65
2021/08/03 10:03:06;;;;;;;2.65;1.57;;;;;;;29.31;33.01;100186.81;1766841;81;26897;-65
2021/08/03 10:05:33;;;;;;;2.37;1.30;;;;;;;29.10;33.61;100196.52;1767277;80;33294;-65
2021/08/03 10:08:00;;;;;;;3.00;1.30;;;;;;;28.91;33.20;100192.62;1767182;80;25858;-65
2021/08/03 10:10:28;;;;;;;5.40;1.40;;;;;;;28.24;31.17;100196.63;1767705;80;26367;-65
2021/08/03 10:12:55;;;;;;;2.23;1.53;;;;;;;27.63;32.89;100190.98;1767505;80;25708;-65
2021/08/03 10:15:23;;;;;;;3.35;1.27;;;;;;;27.21;32.97;100180.29;1701025;84;27974;-65
2021/08/03 10:17:50;;;;;;;4.55;1.57;;;;;;;26.79;33.51;100184.64;1766534;81;25779;-65
2021/08/03 10:20:17;;;;;;;7.05;2.65;;;;;;;26.54;35.08;100187.19;1767598;80;25752;-65
2021/08/03 10:23:03;;;;;;;13.05;9.33;;;;;;;26.96;35.49;100184.91;1767150;80;25661;-65
2021/08/03 10:25:37;;;;;;;1.87;1.55;;;;;;;27.44;35.52;100182.84;1767326;80;25637;-66
2021/08/03 10:28:26;;;;;;;2.50;1.15;;;;;;;28.04;33.72;100182.78;1767101;80;27358;-65
2021/08/03 10:30:54;;;;;;;1.87;1.52;;;;;;;28.40;33.46;100181.97;1767320;80;25711;-65
2021/08/03 10:33:42;;;;;;;4.42;1.20;;;;;;;29.06;33.79;100179.11;1767565;80;25712;-66
2021/08/03 10:36:39;;;;;;;2.40;1.60;;;;;;;29.32;32.16;100195.34;1767362;80;25747;-65
2021/08/03 10:39:18;;;;;;;59.65;56.40;;;;;;;29.26;31.21;100185.95;1754658;81;25652;-65
2021/08/03 10:42:07;;;;;;;59.13;56.13;;;;;;;29.51;31.62;100187.24;1767233;81;33218;-65
2021/08/03 10:44:47;;;;;;;59.08;56.08;;;;;;;29.40;30.64;100175.80;1767138;81;25648;-65
2021/08/03 10:47:37;;;;;;;58.52;55.45;;;;;;;29.35;30.14;100183.92;1713917;82;25782;-65
2021/08/03 10:50:17;;;;;;;12.68;11.75;;;;;;;29.37;30.42;100186.45;1731516;81;26392;-67
2021/08/03 10:52:54;;;;;;;4.15;1.37;;;;;;;29.57;30.71;100189.66;1765343;80;25717;-65
2021/08/03 10:55:38;;;;;;;5.22;1.37;;;;;;;29.66;30.72;100185.63;1765749;80;27237;-66
2021/08/03 10:58:16;;;;;;;4.33;1.30;;;;;;;29.45;29.80;100177.88;1716168;81;25787;-66
2021/08/03 11:01:01;;;;;;;3.83;1.42;;;;;;;29.31;30.45;100193.00;1767208;81;26353;-66
2021/08/03 11:03:36;;;;;;;29.67;27.93;;;;;;;29.35;29.38;100183.30;1767168;81;25739;-66
2021/08/03 11:06:14;;;;;;;3.27;1.22;;;;;;;29.12;30.47;100196.08;1767171;81;25672;-66
2021/08/03 11:08:46;;;;;;;4.28;1.37;;;;;;;28.81;30.36;100176.98;1767270;81;28362;-66
2021/08/03 11:11:26;;;;;;;1.55;1.20;;;;;;;28.66;29.58;100183.55;1772577;80;25663;-66
2021/08/03 11:14:09;;;;;;;3.47;1.65;;;;;;;28.34;30.62;100178.75;1772776;80;25724;-66
2021/08/03 11:16:37;;;;;;;2.95;2.15;;;;;;;28.30;29.97;100171.27;1766817;80;26897;-66
2021/08/03 11:19:07;;;;;;;3.05;1.30;;;;;;;28.31;29.72;100173.43;1767115;81;25655;-66
2021/08/03 11:21:48;;;;;;;2.00;1.40;;;;;;;28.34;29.52;100163.45;1745457;81;27393;-66
2021/08/03 11:24:17;;;;;;;6.20;1.60;;;;;;;27.90;29.05;100176.13;1767165;81;26131;-66
2021/08/03 11:26:52;;;;;;;;;;;;;;;27.29;30.09;100164.29;1769727;81;26361;-66
2021/08/03 11:29:26;;;;;;;3.12;1.40;;;;;;;27.09;31.07;100172.59;1752000;81;26196;-66
2021/08/03 11:32:00;;;;;;;3.80;1.80;;;;;;;27.46;31.67;100170.70;1765998;80;25788;-66
2021/08/03 11:34:37;;;;;;;1.82;1.40;;;;;;;27.75;30.03;100176.46;1700577;83;27345;-67
2021/08/03 11:37:15;;;;;;;3.58;1.57;;;;;;;27.72;31.17;100166.20;1767755;80;25846;-66
2021/08/03 11:39:58;;;;;;;3.55;1.25;;;;;;;28.06;30.39;100167.06;1767166;81;25703;-66
2021/08/03 11:42:43;;;;;;;2.20;1.50;;;;;;;28.06;30.78;100174.01;1769785;80;25756;-66
2021/08/03 11:45:22;;;;;;;3.27;1.40;;;;;;;28.22;30.49;100163.53;1766986;80;25755;-66